Time;durP1;ratioP1;P1;durP2;ratioP2;P2;SDS_P1;SDS_P2;PMS_P1;PMS_P2;Temp;Humidity;BMP_temperature;BMP_pressure;BME280_temperature;BME280_humidity;BME280_pressure;Samples;Min_cycle;Max_cycle;Signal;HPM_P1;HPM_P2
2022/09/29 00:00:20;;;;;;;17.77;10.73;;;8.30;99.90;;;;;;5073676;28;20411;-76
2022/09/29 00:02:46;;;;;;;16.45;10.77;;;8.30;99.90;;;;;;5068228;28;20103;-77
2022/09/29 00:05:11;;;;;;;18.58;12.15;;;8.30;99.90;;;;;;5064757;28;20020;-76
2022/09/29 00:07:37;;;;;;;20.58;11.70;;;8.30;99.90;;;;;;5062027;28;20040;-76
2022/09/29 00:10:03;;;;;;;19.60;11.65;;;8.30;99.90;;;;;;5065593;28;20016;-76
2022/09/29 00:12:29;;;;;;;16.50;10.98;;;8.30;99.90;;;;;;5067276;28;20048;-76
2022/09/29 00:14:55;;;;;;;17.25;10.43;;;8.20;99.90;;;;;;5064964;28;20020;-76
2022/09/29 00:17:21;;;;;;;16.20;10.52;;;8.20;99.90;;;;;;5062305;28;20447;-76
2022/09/29 00:19:46;;;;;;;18.98;12.60;;;8.20;99.90;;;;;;5063258;28;20139;-76
2022/09/29 00:22:12;;;;;;;16.80;11.10;;;8.20;99.90;;;;;;5061503;28;20036;-77
2022/09/29 00:24:38;;;;;;;19.88;11.80;;;8.20;99.90;;;;;;5065071;28;20040;-76
2022/09/29 00:27:03;;;;;;;18.98;11.20;;;8.20;99.90;;;;;;5067317;28;20025;-76
2022/09/29 00:29:29;;;;;;;17.27;11.20;;;8.20;99.90;;;;;;5064524;28;20496;-77
2022/09/29 00:31:55;;;;;;;17.20;10.15;;;8.20;99.90;;;;;;5066919;28;20021;-76
2022/09/29 00:34:21;;;;;;;19.33;12.15;;;8.10;99.90;;;;;;5063894;28;20040;-76
2022/09/29 00:36:46;;;;;;;20.00;12.50;;;8.20;99.90;;;;;;5065372;28;20082;-77
2022/09/29 00:39:12;;;;;;;18.45;11.80;;;8.10;99.90;;;;;;5063095;28;20048;-77
2022/09/29 00:41:39;;;;;;;18.02;11.02;;;8.20;99.90;;;;;;5065502;28;20103;-76
2022/09/29 00:44:11;;;;;;;20.65;10.90;;;8.20;99.90;;;;;;5065948;28;20046;-77
2022/09/29 00:47:04;;;;;;;21.73;12.27;;;8.20;99.90;;;;;;5065758;28;20025;-77
2022/09/29 00:49:42;;;;;;;16.98;11.13;;;8.10;99.90;;;;;;5060155;28;20040;-76
2022/09/29 00:52:34;;;;;;;18.73;11.20;;;8.10;99.90;;;;;;5063269;28;20094;-76
2022/09/29 00:55:21;;;;;;;18.65;11.25;;;8.10;99.90;;;;;;5080122;28;20040;-76
2022/09/29 00:58:11;;;;;;;16.08;10.75;;;8.10;99.90;;;;;;5067229;28;20021;-76
2022/09/29 01:00:38;;;;;;;16.52;10.65;;;8.10;99.90;;;;;;5061910;28;20032;-76
2022/09/29 01:03:12;;;;;;;23.75;11.40;;;8.10;99.90;;;;;;5061618;28;20103;-76
2022/09/29 01:05:49;;;;;;;19.40;11.23;;;8.10;99.90;;;;;;5066133;28;20032;-76
2022/09/29 01:08:35;;;;;;;19.45;11.07;;;8.10;99.90;;;;;;5061292;28;20033;-76
2022/09/29 01:11:02;;;;;;;19.45;11.10;;;8.10;99.90;;;;;;5064796;28;20051;-76
2022/09/29 01:13:30;;;;;;;18.60;11.80;;;8.10;99.90;;;;;;5070878;28;20052;-76
2022/09/29 01:15:57;;;;;;;17.40;11.02;;;8.10;99.90;;;;;;5066366;28;20025;-76
2022/09/29 01:18:23;;;;;;;17.63;10.43;;;8.10;99.90;;;;;;5066804;28;20033;-76
2022/09/29 01:20:57;;;;;;;21.33;11.52;;;8.10;99.90;;;;;;5058909;28;20021;-76
2022/09/29 01:23:42;;;;;;;18.10;11.75;;;8.10;99.90;;;;;;5064924;28;20029;-76
2022/09/29 01:26:26;;;;;;;17.20;11.32;;;8.10;99.90;;;;;;5060349;28;20033;-76
2022/09/29 01:29:21;;;;;;;20.40;11.63;;;8.00;99.90;;;;;;5060459;28;20028;-76
2022/09/29 01:31:58;;;;;;;17.05;10.90;;;8.00;99.90;;;;;;5061811;28;20029;-76
2022/09/29 01:34:43;;;;;;;18.48;10.32;;;8.00;99.90;;;;;;5062975;28;20040;-76
2022/09/29 01:37:26;;;;;;;15.95;10.23;;;8.00;99.90;;;;;;5068439;28;20036;-76
2022/09/29 01:40:17;;;;;;;19.15;11.18;;;8.00;99.90;;;;;;5068946;28;20074;-77
2022/09/29 01:42:56;;;;;;;17.45;10.95;;;8.00;99.90;;;;;;5068090;28;20400;-76
2022/09/29 01:45:35;;;;;;;16.95;10.52;;;8.00;99.90;;;;;;5068682;28;20062;-76
2022/09/29 01:48:13;;;;;;;17.27;10.48;;;8.00;99.90;;;;;;5067025;28;20012;-77
2022/09/29 01:50:44;;;;;;;16.50;11.15;;;8.00;99.90;;;;;;5069071;28;20050;-77
2022/09/29 01:53:20;;;;;;;16.98;10.52;;;8.00;99.90;;;;;;5070758;28;20070;-77
2022/09/29 01:55:52;;;;;;;17.58;10.80;;;8.00;99.90;;;;;;5071065;28;20021;-76
2022/09/29 01:58:46;;;;;;;18.45;10.82;;;8.00;99.90;;;;;;5066806;28;20137;-76
2022/09/29 02:01:15;;;;;;;15.98;10.80;;;8.00;99.90;;;;;;5055813;28;20106;-76
2022/09/29 02:03:46;;;;;;;20.65;10.52;;;7.90;99.90;;;;;;5067829;28;20025;-77
2022/09/29 02:06:16;;;;;;;17.58;11.20;;;8.00;99.90;;;;;;5068582;28;20040;-76
2022/09/29 02:08:47;;;;;;;17.63;11.30;;;7.90;99.90;;;;;;5068453;28;20055;-76
2022/09/29 02:11:15;;;;;;;20.65;11.23;;;7.90;99.90;;;;;;5067609;28;20031;-76
2022/09/29 02:14:00;;;;;;;17.70;11.13;;;7.90;99.90;;;;;;5067778;28;20024;-76
2022/09/29 02:16:31;;;;;;;19.65;11.70;;;7.90;99.90;;;;;;5067856;28;20090;-76
2022/09/29 02:19:28;;;;;;;18.67;10.85;;;7.90;99.90;;;;;;5067208;28;20518;-76
2022/09/29 02:21:54;;;;;;;15.48;10.13;;;7.90;99.90;;;;;;5058106;28;20029;-75
2022/09/29 02:24:23;;;;;;;18.27;11.20;;;7.90;99.90;;;;;;5070967;28;20112;-76
2022/09/29 02:26:52;;;;;;;19.83;11.25;;;7.90;99.90;;;;;;5069645;28;20070;-77
2022/09/29 02:29:19;;;;;;;16.77;10.52;;;7.90;99.90;;;;;;5076376;28;20033;-77
2022/09/29 02:31:47;;;;;;;15.88;10.43;;;7.90;99.90;;;;;;5067966;28;20432;-77
2022/09/29 02:34:16;;;;;;;16.33;10.50;;;7.80;99.90;;;;;;5070767;28;20058;-77
2022/09/29 02:36:56;;;;;;;17.88;11.18;;;7.90;99.90;;;;;;5067971;28;20130;-77
2022/09/29 02:39:37;;;;;;;19.48;12.27;;;7.80;99.90;;;;;;5067447;28;20480;-77
2022/09/29 02:42:21;;;;;;;21.30;11.50;;;7.80;99.90;;;;;;5062405;28;20035;-77
2022/09/29 02:45:20;;;;;;;17.65;11.05;;;7.80;99.90;;;;;;5066128;28;20036;-77
2022/09/29 02:48:34;;;;;;;17.75;10.30;;;7.80;99.90;;;;;;5058228;28;20025;-76
2022/09/29 02:51:12;;;;;;;16.58;10.65;;;7.80;99.90;;;;;;5015131;28;20041;-76
2022/09/29 02:53:46;;;;;;;18.90;11.27;;;7.80;99.90;;;;;;5062565;28;20528;-77
2022/09/29 02:56:24;;;;;;;18.10;10.93;;;7.70;99.90;;;;;;5062078;28;20032;-77
2022/09/29 02:58:59;;;;;;;19.95;11.15;;;7.70;99.90;;;;;;5067792;28;20036;-77
2022/09/29 03:01:28;;;;;;;19.70;11.45;;;7.70;99.90;;;;;;5062112;28;20052;-76
2022/09/29 03:03:54;;;;;;;21.27;12.25;;;7.80;99.90;;;;;;5063927;28;20043;-77
2022/09/29 03:06:20;;;;;;;20.25;11.82;;;7.80;99.90;;;;;;5061568;28;20032;-76
2022/09/29 03:08:46;;;;;;;18.70;12.20;;;7.80;99.90;;;;;;5068574;28;20094;-77
2022/09/29 03:11:11;;;;;;;18.60;11.27;;;7.80;99.90;;;;;;5067426;28;20392;-77
2022/09/29 03:13:37;;;;;;;19.02;11.52;;;7.80;99.90;;;;;;5067425;28;20106;-77
2022/09/29 03:16:02;;;;;;;17.10;11.15;;;7.80;99.90;;;;;;5064993;28;20249;-77
2022/09/29 03:18:28;;;;;;;19.27;12.05;;;7.80;99.90;;;;;;5065155;28;20377;-77
2022/09/29 03:20:54;;;;;;;19.77;11.50;;;7.80;99.90;;;;;;5065788;28;20029;-77
2022/09/29 03:23:20;;;;;;;19.20;11.25;;;7.80;99.90;;;;;;5062462;28;20032;-77
2022/09/29 03:25:46;;;;;;;16.92;11.57;;;7.80;99.90;;;;;;5066593;28;20082;-77
2022/09/29 03:28:12;;;;;;;20.17;12.88;;;7.80;99.90;;;;;;5069019;28;20073;-77
2022/09/29 03:30:38;;;;;;;21.23;12.00;;;7.80;99.90;;;;;;5063895;28;20251;-77
2022/09/29 03:33:04;;;;;;;22.80;11.90;;;7.80;99.90;;;;;;5067596;28;20052;-76
2022/09/29 03:35:30;;;;;;;19.45;12.38;;;7.80;99.90;;;;;;5069460;28;20024;-76
2022/09/29 03:37:59;;;;;;;20.33;12.70;;;7.80;99.90;;;;;;5068409;28;20048;-76
2022/09/29 03:40:27;;;;;;;23.63;13.50;;;7.80;99.90;;;;;;5070125;28;20553;-76
2022/09/29 03:42:53;;;;;;;20.13;13.35;;;7.80;99.90;;;;;;5070343;28;20618;-76
2022/09/29 03:45:18;;;;;;;18.70;11.93;;;7.70;99.90;;;;;;5066528;28;20074;-76
2022/09/29 03:47:44;;;;;;;20.83;13.32;;;7.70;99.90;;;;;;5067373;28;20050;-77
2022/09/29 03:50:10;;;;;;;21.05;13.25;;;7.70;99.90;;;;;;5062823;28;20480;-76
2022/09/29 03:52:36;;;;;;;22.27;12.98;;;7.70;99.90;;;;;;5064240;28;20728;-77
2022/09/29 03:55:02;;;;;;;22.83;12.50;;;7.70;99.90;;;;;;5064825;28;20107;-76
2022/09/29 03:57:28;;;;;;;20.35;13.07;;;7.70;99.90;;;;;;5068318;28;20103;-76
2022/09/29 03:59:54;;;;;;;24.25;12.98;;;7.70;99.90;;;;;;5063474;28;20025;-76
2022/09/29 04:02:20;;;;;;;21.10;13.10;;;7.70;99.90;;;;;;5069999;28;20032;-77
2022/09/29 04:04:46;;;;;;;21.45;14.00;;;7.70;99.90;;;;;;5069564;28;20074;-77
2022/09/29 04:07:12;;;;;;;22.50;12.85;;;7.70;99.90;;;;;;5066759;28;20027;-76
2022/09/29 04:09:37;;;;;;;23.02;13.88;;;7.70;99.90;;;;;;5063063;28;20036;-76
2022/09/29 04:12:04;;;;;;;20.48;13.38;;;7.70;99.90;;;;;;5067794;28;20028;-76
2022/09/29 04:14:29;;;;;;;23.25;13.93;;;7.70;99.90;;;;;;5066725;28;20500;-77
2022/09/29 04:16:55;;;;;;;21.55;13.20;;;7.70;99.90;;;;;;5070152;28;20024;-77
2022/09/29 04:19:21;;;;;;;23.13;13.75;;;7.70;99.90;;;;;;5059942;28;20025;-77
2022/09/29 04:21:47;;;;;;;22.50;14.20;;;7.70;99.90;;;;;;5068981;28;20032;-75
2022/09/29 04:24:12;;;;;;;23.17;13.98;;;7.70;99.90;;;;;;5060748;28;20024;-76
2022/09/29 04:26:38;;;;;;;24.77;13.63;;;7.70;99.90;;;;;;5066785;28;20043;-77
2022/09/29 04:29:05;;;;;;;22.48;13.90;;;7.70;99.90;;;;;;5064493;28;20442;-76
2022/09/29 04:31:30;;;;;;;24.73;14.32;;;7.70;99.90;;;;;;5067288;28;20179;-76
2022/09/29 04:33:56;;;;;;;21.83;13.70;;;7.80;99.90;;;;;;5065591;28;20051;-77
2022/09/29 04:36:22;;;;;;;23.55;14.25;;;7.70;99.90;;;;;;5066799;28;20028;-77
2022/09/29 04:38:49;;;;;;;23.27;14.35;;;7.80;99.90;;;;;;5066108;28;20068;-77
2022/09/29 04:41:15;;;;;;;24.40;14.30;;;7.70;99.90;;;;;;5065293;28;20028;-77
2022/09/29 04:43:41;;;;;;;23.05;14.88;;;7.80;99.90;;;;;;5068751;28;20365;-77
2022/09/29 04:46:07;;;;;;;23.40;14.75;;;7.80;99.90;;;;;;5061735;28;20656;-77
2022/09/29 04:48:34;;;;;;;22.27;13.60;;;7.80;99.90;;;;;;5086710;28;20133;-76
2022/09/29 04:51:01;;;;;;;23.40;14.75;;;7.80;99.90;;;;;;5058773;28;20017;-77
2022/09/29 04:53:27;;;;;;;24.38;14.60;;;7.80;99.90;;;;;;5068575;28;20076;-76
2022/09/29 04:55:52;;;;;;;24.00;14.68;;;7.80;99.90;;;;;;5079359;28;20056;-77
2022/09/29 04:58:18;;;;;;;22.60;14.00;;;7.80;99.90;;;;;;5082952;28;20139;-78
2022/09/29 05:00:45;;;;;;;28.25;15.73;;;7.80;99.90;;;;;;5065889;28;20017;-77
2022/09/29 05:03:11;;;;;;;25.08;14.95;;;7.80;99.90;;;;;;5062425;28;20032;-76
2022/09/29 05:05:37;;;;;;;23.05;14.73;;;7.80;99.90;;;;;;5060677;28;20557;-77
2022/09/29 05:08:03;;;;;;;23.00;14.15;;;7.80;99.90;;;;;;5062328;28;20158;-76
2022/09/29 05:10:29;;;;;;;26.63;14.88;;;7.80;99.90;;;;;;5065568;28;20021;-75
2022/09/29 05:12:55;;;;;;;24.80;14.88;;;7.80;99.90;;;;;;5067851;28;20442;-76
2022/09/29 05:15:22;;;;;;;23.23;14.95;;;7.80;99.90;;;;;;5067233;28;20020;-76
2022/09/29 05:17:47;;;;;;;26.75;15.45;;;7.80;99.90;;;;;;5063187;28;20448;-76
2022/09/29 05:20:15;;;;;;;28.95;15.70;;;7.80;99.90;;;;;;5065115;28;20020;-76
2022/09/29 05:22:41;;;;;;;22.63;14.93;;;7.80;99.90;;;;;;5048117;28;20025;-76
2022/09/29 05:25:07;;;;;;;25.60;15.40;;;7.80;99.90;;;;;;5064775;28;20492;-76
2022/09/29 05:27:35;;;;;;;23.15;14.73;;;7.80;99.90;;;;;;5073208;28;20013;-76
2022/09/29 05:30:01;;;;;;;20.63;13.70;;;7.80;99.90;;;;;;5065518;28;20059;-76
2022/09/29 05:32:26;;;;;;;23.00;14.18;;;7.80;99.90;;;;;;5067888;28;21302;-76
2022/09/29 05:34:52;;;;;;;23.95;15.43;;;7.80;99.90;;;;;;5050718;28;20020;-77
2022/09/29 05:37:18;;;;;;;25.30;16.17;;;7.80;99.90;;;;;;5071558;28;20048;-77
2022/09/29 05:39:45;;;;;;;25.45;15.80;;;7.80;99.90;;;;;;5069405;28;20024;-77
2022/09/29 05:42:12;;;;;;;28.10;16.38;;;7.90;99.90;;;;;;5072719;28;20036;-76
2022/09/29 05:44:38;;;;;;;26.05;15.18;;;7.90;99.90;;;;;;5064322;28;20037;-77
2022/09/29 05:47:03;;;;;;;27.13;15.23;;;7.90;99.90;;;;;;5066930;28;20510;-78
2022/09/29 05:49:31;;;;;;;25.70;15.75;;;7.90;99.90;;;;;;5064501;28;20032;-77
2022/09/29 05:51:58;;;;;;;26.50;16.38;;;7.90;99.90;;;;;;5070975;28;20032;-76
2022/09/29 05:54:26;;;;;;;27.23;16.33;;;8.00;99.90;;;;;;5069390;28;20031;-77
2022/09/29 05:56:52;;;;;;;27.10;17.05;;;8.00;99.90;;;;;;5070022;28;20039;-77
2022/09/29 05:59:18;;;;;;;25.60;15.82;;;8.00;99.90;;;;;;5072810;28;20593;-77
2022/09/29 06:01:43;;;;;;;24.80;16.15;;;8.00;99.90;;;;;;5067156;28;20039;-75
2022/09/29 06:04:09;;;;;;;25.33;16.40;;;8.10;99.90;;;;;;5068216;28;20024;-75
2022/09/29 06:06:35;;;;;;;26.95;16.08;;;8.10;99.90;;;;;;5063578;28;20500;-75
2022/09/29 06:09:01;;;;;;;24.27;16.92;;;8.10;99.90;;;;;;5065332;28;20077;-75
2022/09/29 06:11:30;;;;;;;24.13;15.85;;;8.10;99.90;;;;;;5056969;28;20060;-75
2022/09/29 06:13:56;;;;;;;23.15;15.50;;;8.20;99.90;;;;;;5067740;28;20120;-74
2022/09/29 06:16:25;;;;;;;24.40;15.18;;;8.20;99.90;;;;;;5065633;28;20524;-76
2022/09/29 06:18:51;;;;;;;29.30;16.75;;;8.20;99.90;;;;;;5077773;28;20020;-78
2022/09/29 06:21:25;;;;;;;27.25;16.63;;;8.20;99.90;;;;;;5073310;28;20024;-78
2022/09/29 06:23:53;;;;;;;25.65;16.50;;;8.20;99.90;;;;;;5075143;28;20116;-78
2022/09/29 06:26:19;;;;;;;13.88;9.07;;;8.20;99.90;;;;;;5068678;28;20029;-79
2022/09/29 06:28:46;;;;;;;25.30;15.65;;;8.50;99.90;;;;;;5074955;28;20105;-76
2022/09/29 06:31:18;;;;;;;26.17;15.43;;;8.80;99.90;;;;;;5072555;28;20094;-77
2022/09/29 06:33:44;;;;;;;25.35;16.38;;;8.70;99.90;;;;;;5080022;28;20024;-77
2022/09/29 06:39:05;;;;;;;21.17;14.10;;;8.60;99.90;;;;;;5075303;28;20031;-80
2022/09/29 06:41:31;;;;;;;27.35;16.77;;;8.50;99.90;;;;;;5073043;28;20044;-77
2022/09/29 06:43:57;;;;;;;25.85;16.42;;;8.50;99.90;;;;;;5069857;28;20031;-80
2022/09/29 06:46:25;;;;;;;23.98;14.93;;;8.50;99.90;;;;;;5052499;28;20372;-79
2022/09/29 06:48:54;;;;;;;27.35;15.73;;;8.50;99.90;;;;;;5075468;28;20044;-77
2022/09/29 06:51:22;;;;;;;29.17;15.07;;;8.50;99.90;;;;;;5070802;28;20115;-77
2022/09/29 06:53:49;;;;;;;23.08;15.27;;;8.50;99.90;;;;;;5074359;28;20067;-78
2022/09/29 06:56:15;;;;;;;25.15;16.13;;;8.60;99.90;;;;;;5075284;28;20024;-78
2022/09/29 06:58:41;;;;;;;27.92;16.13;;;8.60;99.90;;;;;;5056969;28;20032;-76
2022/09/29 07:01:08;;;;;;;23.77;15.75;;;8.60;99.90;;;;;;5059932;28;20531;-75
2022/09/29 07:03:34;;;;;;;25.08;16.10;;;8.60;99.90;;;;;;5064673;28;20032;-75
2022/09/29 07:06:05;;;;;;;26.25;16.13;;;8.60;99.90;;;;;;5070531;28;20028;-75
2022/09/29 07:08:31;;;;;;;25.27;16.42;;;8.60;99.90;;;;;;5067032;28;20034;-74
2022/09/29 07:10:57;;;;;;;21.83;14.73;;;8.60;99.90;;;;;;5070224;28;20285;-75
2022/09/29 07:13:24;;;;;;;29.58;16.77;;;8.70;99.90;;;;;;5055445;28;20037;-75
2022/09/29 07:15:50;;;;;;;23.20;15.85;;;8.70;99.90;;;;;;5069505;28;20025;-75
2022/09/29 07:18:16;;;;;;;25.92;14.95;;;8.70;99.90;;;;;;5072166;28;20657;-76
2022/09/29 07:20:41;;;;;;;21.17;14.88;;;8.70;99.90;;;;;;5070394;28;20024;-75
2022/09/29 07:23:07;;;;;;;23.65;15.00;;;8.80;99.90;;;;;;5069342;28;20096;-76
2022/09/29 07:25:33;;;;;;;27.98;16.02;;;8.80;99.90;;;;;;5074233;28;20156;-75
2022/09/29 07:28:00;;;;;;;23.92;15.55;;;8.80;99.90;;;;;;5069742;28;20021;-75
2022/09/29 07:30:26;;;;;;;25.67;15.95;;;8.80;99.90;;;;;;5068722;28;20024;-75
2022/09/29 07:32:54;;;;;;;23.05;15.45;;;8.90;99.90;;;;;;5058012;28;20098;-74
2022/09/29 07:35:20;;;;;;;24.88;16.52;;;8.90;99.90;;;;;;5061442;28;20040;-75
2022/09/29 07:37:53;;;;;;;22.05;15.43;;;8.90;99.90;;;;;;5066875;28;20095;-75
2022/09/29 07:40:23;;;;;;;23.77;17.17;;;9.00;99.90;;;;;;5061803;28;20036;-75
2022/09/29 07:42:49;;;;;;;27.05;18.23;;;9.00;99.90;;;;;;5052880;28;20024;-75
2022/09/29 07:45:16;;;;;;;23.35;16.50;;;9.00;99.90;;;;;;5060019;28;20044;-75
2022/09/29 07:47:42;;;;;;;27.30;17.08;;;9.00;99.90;;;;;;5064881;28;20541;-75
2022/09/29 07:50:08;;;;;;;22.20;16.00;;;9.00;99.90;;;;;;5065942;28;20028;-75
2022/09/29 07:52:34;;;;;;;24.52;16.63;;;9.10;99.90;;;;;;5064633;28;20099;-75
2022/09/29 07:55:01;;;;;;;57.67;37.20;;;9.10;99.90;;;;;;5065205;28;20120;-75
2022/09/29 07:57:27;;;;;;;69.50;39.58;;;9.10;99.90;;;;;;5063893;28;20044;-75
2022/09/29 07:59:53;;;;;;;35.60;22.27;;;9.10;99.90;;;;;;5063214;28;20028;-75
2022/09/29 08:02:20;;;;;;;25.65;16.95;;;9.20;99.90;;;;;;5065375;28;20032;-76
2022/09/29 08:04:45;;;;;;;26.05;17.15;;;9.20;99.90;;;;;;5070462;28;20143;-77
2022/09/29 08:07:11;;;;;;;27.40;16.67;;;9.20;99.90;;;;;;5068365;28;20580;-77
2022/09/29 08:09:37;;;;;;;24.02;16.88;;;9.30;99.90;;;;;;5077578;28;20024;-77
2022/09/29 08:12:03;;;;;;;23.90;16.95;;;9.40;99.90;;;;;;5071442;28;20032;-77
2022/09/29 08:14:28;;;;;;;23.13;16.52;;;9.40;99.90;;;;;;5069829;28;20082;-77
2022/09/29 08:16:54;;;;;;;25.63;17.42;;;9.50;99.90;;;;;;5069780;28;20035;-77
2022/09/29 08:19:20;;;;;;;21.13;15.02;;;9.50;99.90;;;;;;5067631;28;20118;-77
2022/09/29 08:21:48;;;;;;;64.85;35.45;;;9.50;99.90;;;;;;5069237;28;20035;-77
2022/09/29 08:24:16;;;;;;;34.78;22.27;;;9.60;99.90;;;;;;5073262;28;20075;-77
2022/09/29 08:26:42;;;;;;;23.27;16.13;;;9.60;99.90;;;;;;5074018;28;20129;-77
2022/09/29 08:29:08;;;;;;;20.30;14.40;;;9.70;99.90;;;;;;5069836;28;20035;-77
2022/09/29 08:31:36;;;;;;;20.33;14.38;;;9.70;99.90;;;;;;5059530;28;20020;-77
2022/09/29 08:34:02;;;;;;;21.77;13.98;;;9.80;99.90;;;;;;5067520;28;20111;-77
2022/09/29 08:36:28;;;;;;;22.15;14.63;;;9.80;99.90;;;;;;5068954;28;20112;-76
2022/09/29 08:38:55;;;;;;;21.42;13.63;;;9.90;99.90;;;;;;5068141;28;20135;-77
2022/09/29 08:41:52;;;;;;;24.02;15.60;;;9.90;99.90;;;;;;5070018;28;20025;-77
2022/09/29 08:44:40;;;;;;;22.02;14.20;;;9.90;99.90;;;;;;5071875;28;20029;-77
2022/09/29 08:47:36;;;;;;;22.27;15.45;;;10.00;99.90;;;;;;5082375;28;20060;-77
2022/09/29 08:50:11;;;;;;;22.80;13.65;;;10.10;99.90;;;;;;5048813;28;20041;-77
2022/09/29 08:52:41;;;;;;;20.08;14.07;;;10.10;99.90;;;;;;5068036;28;20495;-77
2022/09/29 08:55:16;;;;;;;19.98;14.52;;;10.20;99.90;;;;;;5073554;28;20430;-77
2022/09/29 08:57:43;;;;;;;17.33;13.25;;;10.30;99.90;;;;;;5059807;28;20029;-77
2022/09/29 09:00:13;;;;;;;22.38;13.73;;;10.30;99.90;;;;;;5064824;28;20081;-77
2022/09/29 09:03:13;;;;;;;21.30;15.27;;;10.30;99.90;;;;;;5073180;28;20032;-77
2022/09/29 09:05:57;;;;;;;112.22;55.38;;;10.40;99.90;;;;;;5056127;28;20561;-78
2022/09/29 09:08:35;;;;;;;33.08;19.08;;;10.40;99.90;;;;;;5077297;28;20021;-78
2022/09/29 09:11:07;;;;;;;19.70;14.50;;;10.50;99.90;;;;;;5078670;28;20028;-78
2022/09/29 09:13:58;;;;;;;21.65;14.60;;;10.60;99.90;;;;;;5076330;28;20149;-78
2022/09/29 09:16:23;;;;;;;19.25;14.70;;;10.70;99.90;;;;;;5076607;28;20078;-78
2022/09/29 09:19:11;;;;;;;23.08;15.27;;;10.70;99.90;;;;;;5077114;28;20080;-77
2022/09/29 09:21:42;;;;;;;20.25;14.13;;;10.80;99.90;;;;;;5068597;28;20029;-78
2022/09/29 09:24:23;;;;;;;18.42;14.88;;;10.90;99.90;;;;;;5064467;28;20588;-76
2022/09/29 09:26:48;;;;;;;24.45;14.70;;;11.00;99.90;;;;;;5066060;28;20129;-76
2022/09/29 09:29:38;;;;;;;20.50;15.45;;;11.00;99.90;;;;;;5065908;28;20095;-77
2022/09/29 09:32:24;;;;;;;21.05;15.55;;;11.10;99.90;;;;;;5069299;28;20039;-78
2022/09/29 09:34:53;;;;;;;23.88;16.70;;;11.00;99.90;;;;;;5062176;28;20431;-78
2022/09/29 09:37:31;;;;;;;23.50;17.33;;;11.10;99.90;;;;;;5073203;28;20090;-78
2022/09/29 09:40:10;;;;;;;24.27;17.00;;;11.10;99.90;;;;;;5062527;28;20673;-78
2022/09/29 09:42:44;;;;;;;25.00;17.77;;;11.10;99.90;;;;;;5061633;28;20107;-77
2022/09/29 09:45:29;;;;;;;25.33;17.90;;;11.00;99.90;;;;;;5064206;28;20036;-77
2022/09/29 09:48:15;;;;;;;21.73;14.48;;;11.00;99.90;;;;;;5064442;28;20024;-77
2022/09/29 09:50:45;;;;;;;19.23;13.52;;;11.00;99.90;;;;;;5066186;28;20033;-77
2022/09/29 09:53:26;;;;;;;14.63;12.68;;;11.00;99.90;;;;;;5072284;28;20059;-78
2022/09/29 09:56:30;;;;;;;16.95;12.75;;;11.10;99.90;;;;;;5067905;28;20025;-77
2022/09/29 09:59:28;;;;;;;16.73;12.15;;;11.10;99.90;;;;;;5075060;28;20440;-77
2022/09/29 10:01:54;;;;;;;17.38;12.45;;;11.30;99.90;;;;;;5065413;28;20263;-77
2022/09/29 10:04:22;;;;;;;17.05;12.57;;;11.50;99.90;;;;;;5071253;28;20052;-78
2022/09/29 10:06:49;;;;;;;18.13;13.35;;;11.60;99.90;;;;;;5064178;28;20044;-77
2022/09/29 10:09:15;;;;;;;17.70;12.70;;;11.80;99.90;;;;;;5062901;28;20024;-77
2022/09/29 10:11:42;;;;;;;18.25;13.52;;;12.00;99.90;;;;;;5075115;28;20392;-77
2022/09/29 10:14:24;;;;;;;17.88;12.57;;;12.00;99.90;;;;;;5064244;28;20459;-76
2022/09/29 10:16:56;;;;;;;18.27;13.60;;;12.20;99.90;;;;;;5076205;28;20082;-77
2022/09/29 10:19:43;;;;;;;18.65;13.65;;;12.10;99.90;;;;;;5075326;28;20032;-77
2022/09/29 10:22:14;;;;;;;18.00;12.45;;;11.90;99.90;;;;;;5070593;28;20488;-77
2022/09/29 10:24:39;;;;;;;16.70;11.95;;;12.00;99.90;;;;;;5070589;28;20028;-77
2022/09/29 10:27:06;;;;;;;16.67;12.05;;;12.00;99.90;;;;;;5072589;28;20020;-77
2022/09/29 10:29:48;;;;;;;18.00;12.80;;;12.00;99.90;;;;;;5069556;28;20101;-76
2022/09/29 10:32:15;;;;;;;16.75;12.05;;;11.90;99.90;;;;;;5074585;28;20037;-78
2022/09/29 10:34:45;;;;;;;13.80;10.85;;;11.90;99.90;;;;;;5080446;28;20024;-78
2022/09/29 10:37:23;;;;;;;19.75;11.82;;;11.90;99.90;;;;;;5074548;28;20131;-77
2022/09/29 10:39:50;;;;;;;18.88;11.82;;;11.80;99.90;;;;;;5072024;28;20498;-77
2022/09/29 10:42:34;;;;;;;16.92;11.35;;;11.80;99.90;;;;;;5077177;28;20033;-77
2022/09/29 10:45:01;;;;;;;16.13;10.88;;;11.70;99.90;;;;;;5073344;28;20021;-77
2022/09/29 10:47:27;;;;;;;15.18;10.55;;;11.70;99.90;;;;;;5077229;28;20443;-77
2022/09/29 10:50:13;;;;;;;14.50;9.68;;;11.70;99.90;;;;;;5078745;28;20024;-77
2022/09/29 10:52:47;;;;;;;15.30;9.75;;;11.70;99.90;;;;;;5063581;28;20427;-78
2022/09/29 10:55:22;;;;;;;14.20;9.68;;;11.60;99.90;;;;;;5071656;28;20569;-77
2022/09/29 10:57:50;;;;;;;13.45;10.10;;;11.60;99.90;;;;;;5074792;28;20039;-77
2022/09/29 11:00:37;;;;;;;14.30;9.35;;;11.50;99.90;;;;;;5072829;28;20278;-78
2022/09/29 11:03:19;;;;;;;14.55;10.70;;;11.50;99.90;;;;;;5073788;28;20021;-77
2022/09/29 11:06:06;;;;;;;13.02;9.32;;;11.50;99.90;;;;;;5074122;28;20043;-77
2022/09/29 11:08:32;;;;;;;12.05;9.10;;;11.60;99.90;;;;;;5088480;28;20055;-77
2022/09/29 11:11:19;;;;;;;14.77;10.13;;;11.60;99.90;;;;;;5071064;28;20074;-78
2022/09/29 11:13:45;;;;;;;15.70;10.65;;;11.60;99.90;;;;;;5070780;28;20037;-77
2022/09/29 11:16:18;;;;;;;13.27;9.93;;;11.60;99.90;;;;;;5074907;28;20028;-77
2022/09/29 11:18:48;;;;;;;15.93;10.35;;;11.60;99.90;;;;;;5068719;28;20032;-77
2022/09/29 11:21:22;;;;;;;16.92;11.05;;;11.60;99.90;;;;;;5073492;28;20082;-77
2022/09/29 11:24:09;;;;;;;15.68;10.65;;;11.60;99.90;;;;;;5073617;28;20033;-77
2022/09/29 11:27:15;;;;;;;17.65;11.70;;;11.60;99.90;;;;;;5057218;28;20157;-77
2022/09/29 11:30:18;;;;;;;15.32;10.88;;;11.60;99.90;;;;;;5067323;28;20029;-78
2022/09/29 11:33:20;;;;;;;17.65;11.98;;;11.60;99.90;;;;;;5069219;28;20023;-77
2022/09/29 11:36:20;;;;;;;16.48;10.38;;;11.60;99.90;;;;;;5067479;28;20025;-78
2022/09/29 11:39:12;;;;;;;16.90;10.65;;;11.60;99.90;;;;;;5070739;28;20035;-77
2022/09/29 11:41:56;;;;;;;19.02;12.63;;;11.70;99.90;;;;;;5065404;28;20071;-79
2022/09/29 11:44:30;;;;;;;18.40;12.45;;;11.70;99.90;;;;;;5073349;28;20035;-77
2022/09/29 11:47:22;;;;;;;18.75;11.98;;;11.80;99.90;;;;;;5071548;28;20089;-78
2022/09/29 11:49:55;;;;;;;;;;;11.80;99.90;;;;;;5090997;28;20384;-78
2022/09/29 11:52:27;;;;;;;18.08;11.65;;;11.80;99.90;;;;;;5067323;28;19905;-77
2022/09/29 11:55:16;;;;;;;19.38;12.32;;;11.80;99.90;;;;;;5071198;28;20067;-77
2022/09/29 11:57:45;;;;;;;20.27;11.45;;;11.70;99.90;;;;;;5043679;28;20046;-78
2022/09/29 12:00:16;;;;;;;16.27;11.13;;;11.60;99.90;;;;;;5072698;28;20029;-77
2022/09/29 12:03:20;;;;;;;18.35;11.48;;;11.70;99.90;;;;;;5068911;28;20024;-78
2022/09/29 12:06:04;;;;;;;14.63;9.85;;;11.70;99.90;;;;;;5038273;28;20064;-78
2022/09/29 12:08:55;;;;;;;17.70;11.25;;;11.70;99.90;;;;;;5070280;28;20603;-77
2022/09/29 12:11:35;;;;;;;16.10;10.20;;;11.80;99.90;;;;;;5073698;28;20020;-76
2022/09/29 12:14:10;;;;;;;16.02;10.45;;;11.80;99.90;;;;;;5072286;28;20043;-77
2022/09/29 12:16:40;;;;;;;17.25;10.48;;;11.90;99.90;;;;;;5069814;28;20047;-77
2022/09/29 12:19:15;;;;;;;15.77;11.27;;;11.80;99.90;;;;;;5073766;28;20036;-78
2022/09/29 12:21:49;;;;;;;18.27;10.85;;;11.80;99.90;;;;;;5079532;28;20025;-78
2022/09/29 12:24:37;;;;;;;18.85;10.57;;;11.80;99.90;;;;;;5082862;28;20021;-78
2022/09/29 12:27:29;;;;;;;16.10;10.00;;;11.80;99.90;;;;;;5077617;28;20041;-78
2022/09/29 12:30:40;;;;;;;20.30;11.88;;;11.70;99.90;;;;;;5066835;28;20037;-77
2022/09/29 12:33:13;;;;;;;14.10;9.20;;;11.60;99.90;;;;;;5072841;28;20055;-77
2022/09/29 12:35:53;;;;;;;12.80;8.50;;;11.70;99.90;;;;;;5070916;28;20464;-77
2022/09/29 12:38:29;;;;;;;12.63;8.68;;;11.60;99.90;;;;;;5070862;28;20032;-77
2022/09/29 12:41:21;;;;;;;13.43;7.70;;;11.60;99.90;;;;;;5074176;28;20384;-78
2022/09/29 12:44:19;;;;;;;9.43;6.75;;;11.70;99.90;;;;;;5071921;28;20411;-77
2022/09/29 12:47:01;;;;;;;10.38;6.45;;;11.70;99.90;;;;;;5053741;28;20094;-77
2022/09/29 12:49:46;;;;;;;9.23;6.57;;;11.70;99.90;;;;;;5077127;28;20512;-77
2022/09/29 12:52:23;;;;;;;7.45;5.97;;;11.80;99.90;;;;;;5066739;28;20020;-77
2022/09/29 12:54:56;;;;;;;7.72;5.43;;;11.70;99.90;;;;;;5070159;28;20452;-76
2022/09/29 12:57:37;;;;;;;664.45;429.58;;;11.80;99.90;;;;;;5072177;28;20029;-77
2022/09/29 13:00:08;;;;;;;487.92;305.40;;;11.80;99.90;;;;;;5070828;28;20025;-77
2022/09/29 13:02:46;;;;;;;;;;;11.90;99.90;;;;;;5073776;28;20464;-77
2022/09/29 13:05:48;;;;;;;57.47;35.55;;;11.90;99.90;;;;;;5073278;28;19908;-79